Sidell, Florida
Current Conditions -  °F | °C
As of 6:53 AM on Sunday 23 Nov 2014 (Local Time) from KPGD Reporting Station
Overcast Overcast  
Wind Chill: 23°   Ceiling: 700
Heat Index: 23°   Visibility: 9mi
Dew Point: 22°   Wind: 9mph
Humidity: 93%   Direction: 140°SE
Pressure: 30.01"   Gusts: NA
Location:  27.215°N, 81.8567°W
Report Text: KPGD 231153Z 14008KT 9SM BKN007 OVC016 23/22 A3001 RMK AO2 SLP162 T02280217 10228 20228 58001 $
Loading
Personal Weather Stations






























Interactive Weather Map New forecast layout! Learn more

10-Day Weather Forecast

Advertisements
Track Severe Weather on mobile